createdAt,value
2017-11-03T00:04:35.993Z,24.00
2017-11-03T00:09:39.206Z,21.03
2017-11-03T00:14:42.412Z,23.10
2017-11-03T00:19:45.633Z,21.17
2017-11-03T00:24:48.830Z,22.13
2017-11-03T00:29:52.010Z,20.63
2017-11-03T00:34:55.202Z,22.77
2017-11-03T00:39:58.480Z,22.53
2017-11-03T00:45:02.442Z,22.30
2017-11-03T00:50:05.655Z,22.27
2017-11-03T00:55:08.932Z,22.80
2017-11-03T01:00:12.882Z,22.93
2017-11-03T01:05:16.058Z,25.67
2017-11-03T01:10:20.067Z,21.27
2017-11-03T01:15:23.395Z,23.07
2017-11-03T01:20:27.346Z,23.53
2017-11-03T01:25:30.549Z,22.33
2017-11-03T01:30:33.750Z,23.03
2017-11-03T01:35:36.963Z,23.50
2017-11-03T01:40:40.127Z,25.37
2017-11-03T01:45:44.082Z,24.70
2017-11-03T01:50:47.270Z,25.90
2017-11-03T01:55:51.243Z,25.57
2017-11-03T02:00:54.458Z,25.47
2017-11-03T02:05:57.639Z,24.80
2017-11-03T02:11:00.826Z,26.50
2017-11-03T02:16:04.034Z,25.33
2017-11-03T02:21:07.299Z,24.60
2017-11-03T02:26:10.492Z,24.63
2017-11-03T02:31:13.673Z,26.73
2017-11-03T02:36:16.883Z,27.30
2017-11-03T02:41:20.058Z,26.00
2017-11-03T02:46:23.272Z,26.53
2017-11-03T02:51:26.448Z,26.10
2017-11-03T02:56:29.654Z,26.40
2017-11-03T03:01:32.857Z,25.27
2017-11-03T03:06:36.054Z,28.47
2017-11-03T03:11:39.254Z,26.43
2017-11-03T03:16:42.437Z,24.97
2017-11-03T03:21:45.626Z,25.17
2017-11-03T03:26:48.790Z,27.20
2017-11-03T03:31:51.967Z,28.43
2017-11-03T03:36:55.162Z,27.93
2017-11-03T03:41:58.329Z,29.50
2017-11-03T03:47:01.486Z,29.60
2017-11-03T03:52:04.675Z,29.60
2017-11-03T03:57:07.826Z,30.23
2017-11-03T04:02:11.822Z,30.97
2017-11-03T04:07:15.030Z,30.73
2017-11-03T04:12:18.207Z,29.33
2017-11-03T04:17:21.415Z,29.30
2017-11-03T04:22:24.601Z,32.10
2017-11-03T04:27:27.781Z,32.17
2017-11-03T04:32:30.937Z,30.20
2017-11-03T04:37:34.160Z,28.63
2017-11-03T04:42:37.363Z,27.10
2017-11-03T04:47:40.545Z,26.73
2017-11-03T04:52:43.710Z,27.40
2017-11-03T04:57:46.896Z,26.30
2017-11-03T05:02:50.186Z,29.90
2017-11-03T05:07:53.383Z,29.53
2017-11-03T05:12:56.562Z,32.03
2017-11-03T05:17:59.762Z,29.63
2017-11-03T05:23:04.376Z,29.87
2017-11-03T05:28:07.562Z,33.00
2017-11-03T05:33:10.740Z,29.40
2017-11-03T05:38:14.063Z,28.35
2017-11-03T05:43:17.262Z,26.17
2017-11-03T05:48:20.442Z,26.60
2017-11-03T05:53:23.618Z,29.00
2017-11-03T05:58:26.837Z,28.80
2017-11-03T06:03:30.817Z,30.00
2017-11-03T06:08:34.050Z,28.10
2017-11-03T06:13:37.240Z,27.90
2017-11-03T06:18:40.435Z,24.87
2017-11-03T06:23:43.629Z,27.87
2017-11-03T06:28:48.656Z,24.97
2017-11-03T06:33:51.848Z,26.80
2017-11-03T06:38:55.782Z,27.92
2017-11-03T06:43:59.943Z,26.50
2017-11-03T06:49:03.138Z,27.27
2017-11-03T06:54:06.301Z,26.33
2017-11-03T06:59:09.554Z,28.30
2017-11-03T07:04:12.786Z,30.50
2017-11-03T07:09:15.962Z,32.78
2017-11-03T07:14:19.161Z,30.83
2017-11-03T07:19:22.353Z,34.00
2017-11-03T07:24:26.307Z,34.47
2017-11-03T07:29:30.362Z,37.67
2017-11-03T07:34:33.561Z,37.17
2017-11-03T07:39:36.767Z,36.27
2017-11-03T07:44:39.950Z,38.47
2017-11-03T07:49:43.193Z,33.90
2017-11-03T07:54:46.387Z,39.13
2017-11-03T07:59:49.602Z,39.40
2017-11-03T08:04:52.911Z,43.73
2017-11-03T08:09:56.127Z,45.20
2017-11-03T08:14:59.309Z,36.93
2017-11-03T08:20:02.519Z,34.70
2017-11-03T08:25:05.742Z,34.57
2017-11-03T08:30:09.000Z,32.33
2017-11-03T08:35:12.186Z,32.63
2017-11-03T08:40:16.160Z,34.77
2017-11-03T08:45:19.381Z,32.77
2017-11-03T08:50:22.572Z,31.57
2017-11-03T08:55:25.810Z,31.63
2017-11-03T09:00:28.988Z,29.57
2017-11-03T09:05:32.178Z,31.43
2017-11-03T09:10:35.373Z,29.33
2017-11-03T09:15:38.734Z,30.10
2017-11-03T09:20:41.903Z,29.47
2017-11-03T09:25:45.095Z,30.05
2017-11-03T09:30:48.373Z,29.73
2017-11-03T09:35:52.439Z,28.63
2017-11-03T09:40:55.658Z,30.30
2017-11-03T09:45:59.009Z,30.00
2017-11-03T09:51:03.074Z,28.53
2017-11-03T09:56:06.285Z,30.50
2017-11-03T10:01:09.493Z,29.57
2017-11-03T10:06:12.705Z,29.47
2017-11-03T10:11:15.899Z,31.60
2017-11-03T10:16:19.242Z,32.97
2017-11-03T10:21:22.419Z,32.57
2017-11-03T10:26:25.607Z,31.87
2017-11-03T10:31:28.799Z,30.43
2017-11-03T10:36:32.791Z,32.23
2017-11-03T10:41:35.997Z,33.67
2017-11-03T10:46:39.199Z,33.10
2017-11-03T10:51:42.942Z,34.70
2017-11-03T10:56:46.157Z,36.67
2017-11-03T11:01:49.325Z,32.60
2017-11-03T11:06:52.549Z,34.70
2017-11-03T11:11:55.799Z,32.87
2017-11-03T11:16:59.005Z,34.30
2017-11-03T11:22:02.182Z,33.40
2017-11-03T11:27:06.165Z,35.20
2017-11-03T11:32:09.381Z,35.20
2017-11-03T11:37:12.601Z,35.63
2017-11-03T11:42:15.767Z,36.90
2017-11-03T11:47:19.053Z,39.73
2017-11-03T11:52:22.986Z,37.23
2017-11-03T11:57:26.246Z,37.90
2017-11-03T12:02:29.443Z,34.10
2017-11-03T12:07:32.637Z,34.63
2017-11-03T12:12:35.809Z,35.70
2017-11-03T12:17:39.017Z,32.77
2017-11-03T12:22:42.285Z,35.13
2017-11-03T12:27:45.495Z,40.20
2017-11-03T12:32:48.667Z,31.87
2017-11-03T12:37:51.873Z,31.60
2017-11-03T12:42:55.083Z,30.73
2017-11-03T12:47:58.275Z,31.77
2017-11-03T12:53:01.455Z,30.67
2017-11-03T12:58:04.695Z,28.40
2017-11-03T13:03:07.882Z,29.03
2017-11-03T13:08:11.147Z,29.67
2017-11-03T13:13:15.099Z,30.30
2017-11-03T13:18:18.341Z,29.00
2017-11-03T13:23:21.586Z,29.37
2017-11-03T13:28:24.785Z,29.30
2017-11-03T13:33:27.966Z,30.63
2017-11-03T13:38:31.157Z,29.77
2017-11-03T13:43:34.347Z,31.80
2017-11-03T13:48:37.569Z,30.00
2017-11-03T13:53:40.770Z,29.07
2017-11-03T13:58:43.986Z,28.07
2017-11-03T14:03:47.291Z,32.20
2017-11-03T14:08:50.494Z,32.70
2017-11-03T14:13:53.691Z,32.97
2017-11-03T14:18:56.918Z,31.87
2017-11-03T14:24:00.127Z,31.70
2017-11-03T14:29:03.327Z,30.93
2017-11-03T14:34:06.538Z,30.83
2017-11-03T14:39:09.826Z,32.20
2017-11-03T14:44:13.036Z,32.33
2017-11-03T14:49:16.261Z,30.17
2017-11-03T14:54:19.472Z,29.80
2017-11-03T14:59:22.748Z,32.20
2017-11-03T15:04:26.408Z,34.20
2017-11-03T15:09:29.655Z,31.27
2017-11-03T15:14:32.854Z,29.20
2017-11-03T15:19:36.782Z,31.60
2017-11-03T15:24:39.967Z,31.37
2017-11-03T15:29:43.943Z,32.90
2017-11-03T15:34:47.150Z,33.53
2017-11-03T15:39:50.498Z,33.50
2017-11-03T15:44:53.889Z,31.60
2017-11-03T15:49:57.117Z,34.90
2017-11-03T15:55:00.518Z,31.53
2017-11-03T16:00:03.750Z,29.07
2017-11-03T16:05:07.714Z,30.10
2017-11-03T16:10:11.006Z,32.50
2017-11-03T16:15:14.218Z,29.97
2017-11-03T16:20:17.483Z,31.47
2017-11-03T16:25:21.450Z,32.07
2017-11-03T16:30:24.662Z,32.40
2017-11-03T16:35:27.954Z,30.70
2017-11-03T16:40:31.153Z,31.20
2017-11-03T16:45:34.356Z,33.87
2017-11-03T16:50:38.334Z,33.13
2017-11-03T16:55:41.511Z,32.53
2017-11-03T17:00:44.695Z,32.13
2017-11-03T17:05:47.982Z,30.90
2017-11-03T17:10:51.921Z,31.97
2017-11-03T17:15:55.120Z,33.80
2017-11-03T17:20:59.176Z,32.97
2017-11-03T17:26:02.350Z,32.73
2017-11-03T17:31:06.312Z,32.57
2017-11-03T17:36:09.563Z,30.50
2017-11-03T17:41:12.812Z,28.90
2017-11-03T17:46:16.031Z,31.23
2017-11-03T17:51:19.277Z,33.10
2017-11-03T17:56:22.494Z,33.23
2017-11-03T18:01:25.721Z,32.70
2017-11-03T18:06:28.967Z,32.13
2017-11-03T18:11:32.115Z,32.20
2017-11-03T18:16:36.050Z,29.03
2017-11-03T18:21:40.080Z,30.37
2017-11-03T18:26:44.043Z,30.90
2017-11-03T18:31:47.311Z,34.53
2017-11-03T18:36:50.522Z,35.87
2017-11-03T18:41:54.607Z,30.30
2017-11-03T18:46:57.828Z,33.10
2017-11-03T18:52:01.167Z,31.70
2017-11-03T18:57:04.349Z,32.07
2017-11-03T19:02:18.191Z,33.77
2017-11-03T19:07:21.458Z,30.47
2017-11-03T19:12:24.698Z,32.50
2017-11-03T19:17:27.962Z,30.87
2017-11-03T19:22:31.169Z,34.73
2017-11-03T19:27:34.418Z,32.20
2017-11-03T19:32:37.631Z,31.67
2017-11-03T19:37:40.935Z,30.20
2017-11-03T19:42:44.159Z,31.40
2017-11-03T19:47:47.526Z,31.80
2017-11-03T19:52:50.735Z,32.07
2017-11-03T19:57:54.033Z,31.40
2017-11-03T20:02:57.368Z,32.63
2017-11-03T20:08:00.629Z,29.17
2017-11-03T20:13:03.839Z,31.50
2017-11-03T20:18:07.807Z,33.43
2017-11-03T20:23:11.039Z,31.17
2017-11-03T20:28:14.355Z,32.20
2017-11-03T20:33:17.614Z,32.50
2017-11-03T20:38:20.830Z,33.90
2017-11-03T20:43:24.108Z,31.23
2017-11-03T20:48:27.289Z,32.47
2017-11-03T20:53:31.871Z,31.50
2017-11-03T20:58:35.157Z,33.60
2017-11-03T21:03:38.609Z,31.63
2017-11-03T21:08:41.841Z,30.83
2017-11-03T21:13:45.934Z,30.20
2017-11-03T21:18:49.143Z,31.30
2017-11-03T21:23:52.484Z,31.97
2017-11-03T21:28:55.666Z,31.13
2017-11-03T21:33:58.850Z,30.83
2017-11-03T21:39:02.050Z,33.60
2017-11-03T21:44:05.238Z,33.10
2017-11-03T21:49:08.430Z,32.60
2017-11-03T21:54:11.641Z,31.63
2017-11-03T21:59:14.867Z,35.47
2017-11-03T22:04:18.161Z,34.00
2017-11-03T22:09:21.362Z,32.17
2017-11-03T22:14:25.348Z,34.90
2017-11-03T22:19:28.537Z,33.30
2017-11-03T22:24:31.723Z,34.10
2017-11-03T22:29:34.917Z,34.93
2017-11-03T22:34:38.250Z,33.93
2017-11-03T22:39:41.478Z,35.63
2017-11-03T22:44:44.891Z,32.97
2017-11-03T22:49:48.120Z,37.33
2017-11-03T22:54:52.183Z,34.10
2017-11-03T22:59:55.384Z,33.97
2017-11-03T23:04:58.574Z,34.90
2017-11-03T23:10:01.778Z,32.90
2017-11-03T23:15:04.999Z,34.23
2017-11-03T23:20:08.233Z,35.17
2017-11-03T23:25:11.426Z,34.30
2017-11-03T23:30:14.644Z,32.58
2017-11-03T23:35:17.813Z,34.73
2017-11-03T23:40:21.010Z,30.57
2017-11-03T23:45:24.214Z,34.87
2017-11-03T23:50:27.404Z,31.97
2017-11-03T23:55:31.409Z,32.47
